Time;durP1;ratioP1;P1;durP2;ratioP2;P2;SDS_P1;SDS_P2;PMS_P1;PMS_P2;Temp;Humidity;BMP_temperature;BMP_pressure;BME280_temperature;BME280_humidity;BME280_pressure;Samples;Min_cycle;Max_cycle;Signal;HPM_P1;HPM_P2
2021/07/18 00:02:06;;;;;;;9.95;8.50;;;;;;;23.29;66.38;99778.92;126615;1090;114134;-83
2021/07/18 00:04:55;;;;;;;12.57;8.53;;;;;;;23.26;66.12;99773.89;126730;1090;102919;-84
2021/07/18 00:07:43;;;;;;;12.67;8.30;;;;;;;23.23;66.46;99784.83;126525;1088;114474;-84
2021/07/18 00:10:32;;;;;;;10.70;7.70;;;;;;;23.23;66.90;99784.83;126675;1089;102978;-84
2021/07/18 00:13:20;;;;;;;9.33;8.37;;;;;;;23.25;66.86;99790.00;126513;1090;114990;-84
2021/07/18 00:16:08;;;;;;;10.67;9.57;;;;;;;23.24;66.51;99788.32;126733;1088;102882;-84
2021/07/18 00:18:56;;;;;;;9.50;8.20;;;;;;;23.19;66.71;99781.61;126555;1090;114124;-84
2021/07/18 00:21:43;;;;;;;10.45;7.90;;;;;;;23.18;66.66;99779.94;126710;1088;102923;-84
2021/07/18 00:24:33;;;;;;;11.43;8.93;;;;;;;23.20;66.35;99785.11;126547;1090;114425;-84
2021/07/18 00:27:21;;;;;;;9.90;8.30;;;;;;;23.24;66.84;99786.50;126678;1089;102779;-84
2021/07/18 00:30:09;;;;;;;13.77;8.90;;;;;;;23.24;66.86;99790.98;126725;1090;102959;-85
2021/07/18 00:32:57;;;;;;;12.00;9.13;;;;;;;23.16;67.03;99781.03;126621;1088;102873;-84
2021/07/18 00:35:45;;;;;;;9.50;8.10;;;;;;;23.08;66.96;99783.56;126854;1089;102902;-84
2021/07/18 00:38:33;;;;;;;12.47;8.53;;;;;;;23.01;67.03;99782.45;126592;1090;114188;-84
2021/07/18 00:41:21;;;;;;;10.90;8.53;;;;;;;23.04;67.52;99785.67;126653;1089;102935;-84
2021/07/18 00:44:08;;;;;;;11.77;8.40;;;;;;;23.06;67.55;99785.53;126614;1089;114094;-83
2021/07/18 00:46:56;;;;;;;10.47;9.27;;;;;;;23.05;67.68;99773.21;126677;1090;102892;-83
2021/07/18 00:49:44;;;;;;;10.33;8.87;;;;;;;23.02;67.30;99773.50;126545;1089;114312;-83
2021/07/18 00:52:32;;;;;;;10.17;8.80;;;;;;;22.97;67.45;99781.03;126670;1089;102927;-83
2021/07/18 00:55:19;;;;;;;10.60;8.37;;;;;;;22.98;67.88;99782.71;126562;1089;114484;-83
2021/07/18 00:58:07;;;;;;;10.33;9.20;;;;;;;23.04;67.76;99788.33;126763;1089;102875;-83
2021/07/18 01:00:55;;;;;;;11.50;8.77;;;;;;;23.02;67.94;99787.63;126574;1088;114457;-83
2021/07/18 01:03:42;;;;;;;10.95;9.00;;;;;;;22.99;67.83;99784.42;126734;1090;102969;-84
2021/07/18 01:06:30;;;;;;;13.87;9.43;;;;;;;22.98;67.93;99785.38;126611;1090;102875;-84
2021/07/18 01:09:19;;;;;;;11.90;9.30;;;;;;;22.95;68.18;99785.66;126590;1090;102965;-84
2021/07/18 01:12:07;;;;;;;13.13;9.07;;;;;;;22.93;68.02;99782.30;126751;1090;103374;-84
2021/07/18 01:14:55;;;;;;;12.03;9.17;;;;;;;22.95;68.89;99788.31;126545;1088;114374;-84
2021/07/18 01:17:44;;;;;;;11.47;9.67;;;;;;;23.01;69.18;99783.30;126799;1089;102878;-84
2021/07/18 01:20:33;;;;;;;11.77;9.10;;;;;;;22.99;68.65;99784.42;126604;1089;114332;-84
2021/07/18 01:23:21;;;;;;;11.30;9.40;;;;;;;22.99;69.10;99792.40;126716;1090;103017;-84
2021/07/18 01:26:09;;;;;;;9.73;8.30;;;;;;;23.06;68.96;99797.01;126543;1090;114430;-84
2021/07/18 01:28:57;;;;;;;12.60;9.63;;;;;;;23.14;68.65;99797.13;126704;1090;102922;-84
2021/07/18 01:31:45;;;;;;;14.27;9.50;;;;;;;23.19;69.03;99794.91;126596;1088;114592;-82
2021/07/18 01:34:33;;;;;;;10.77;9.17;;;;;;;23.17;69.17;99796.04;126706;1090;101741;-82
2021/07/18 01:37:22;;;;;;;12.83;9.67;;;;;;;23.14;69.36;99786.49;126529;1089;114461;-83
2021/07/18 01:40:11;;;;;;;11.33;9.30;;;;;;;23.16;69.14;99797.86;126713;1090;103354;-83
2021/07/18 01:42:59;;;;;;;13.30;9.20;;;;;;;23.22;69.35;99801.77;126761;1088;103039;-83
2021/07/18 01:45:47;;;;;;;14.07;9.57;;;;;;;23.26;69.02;99804.98;126746;1089;101697;-83
2021/07/18 01:48:35;;;;;;;13.73;9.10;;;;;;;23.25;69.16;99801.48;126714;1090;103039;-83
2021/07/18 01:51:27;;;;;;;11.80;9.50;;;;;;;23.20;68.85;99801.08;126577;1090;114440;-83
2021/07/18 01:54:16;;;;;;;10.37;8.53;;;;;;;23.13;69.13;99802.59;126716;1089;102955;-83
2021/07/18 01:57:23;;;;;;;11.50;9.73;;;;;;;23.11;69.31;99804.56;126545;1090;114356;-83
2021/07/18 02:00:14;;;;;;;13.17;9.83;;;;;;;23.13;69.50;99802.59;126663;1090;102779;-83
2021/07/18 02:03:02;;;;;;;10.27;8.93;;;;;;;23.17;69.91;99801.36;126521;1090;114140;-83
2021/07/18 02:05:51;;;;;;;13.47;9.00;;;;;;;23.18;69.68;99803.04;126785;1088;103055;-83
2021/07/18 02:08:39;;;;;;;10.37;9.27;;;;;;;23.16;70.10;99802.31;126701;1088;114279;-83
2021/07/18 02:11:27;;;;;;;11.10;9.93;;;;;;;23.14;69.94;99798.95;126725;1089;103021;-83
2021/07/18 02:14:15;;;;;;;11.23;9.73;;;;;;;23.11;69.92;99808.06;126589;1090;114430;-83
2021/07/18 02:17:03;;;;;;;10.77;9.40;;;;;;;23.12;70.02;99806.23;126900;1089;101985;-83
2021/07/18 02:19:51;;;;;;;10.70;8.83;;;;;;;23.12;69.67;99800.92;126671;1090;114479;-83
2021/07/18 02:22:51;;;;;;;11.87;9.40;;;;;;;23.12;69.98;99806.23;126855;1090;102940;-83
2021/07/18 02:25:39;;;;;;;11.57;10.10;;;;;;;23.11;69.94;99804.56;126695;1090;114304;-83
2021/07/18 02:28:27;;;;;;;11.10;8.93;;;;;;;23.12;70.21;99803.58;126730;1090;100533;-82
2021/07/18 02:31:15;;;;;;;11.43;9.00;;;;;;;23.10;69.87;99802.88;126784;1090;103049;-83
2021/07/18 02:34:03;;;;;;;13.23;9.90;;;;;;;23.11;70.29;99809.88;126595;1089;114183;-83
2021/07/18 02:36:50;;;;;;;12.27;10.37;;;;;;;23.13;70.10;99797.28;126726;1090;102945;-83
2021/07/18 02:39:38;;;;;;;17.63;12.97;;;;;;;23.11;70.30;99805.40;126851;1089;114734;-83
2021/07/18 02:42:26;;;;;;;12.20;10.10;;;;;;;23.08;70.92;99805.69;126726;1088;102895;-83
2021/07/18 02:45:16;;;;;;;12.90;9.93;;;;;;;23.09;70.33;99803.86;126615;1090;114265;-83
2021/07/18 02:48:04;;;;;;;13.50;10.40;;;;;;;23.09;70.59;99807.36;126710;1089;101106;-83
2021/07/18 02:50:52;;;;;;;11.83;10.60;;;;;;;23.13;70.73;99807.91;126669;1089;114333;-83
2021/07/18 02:53:40;;;;;;;15.05;10.65;;;;;;;23.09;70.50;99807.36;126680;1089;102936;-83
2021/07/18 02:56:27;;;;;;;11.50;10.00;;;;;;;23.06;70.34;99807.64;126804;1089;114309;-83
2021/07/18 02:59:15;;;;;;;13.23;10.57;;;;;;;23.05;70.46;99810.45;126722;1090;102908;-83
2021/07/18 03:02:03;;;;;;;12.60;10.50;;;;;;;23.07;70.77;99801.34;126633;1089;114438;-83
2021/07/18 03:04:52;;;;;;;14.33;10.13;;;;;;;23.08;70.86;99805.69;126695;1090;102979;-83
2021/07/18 03:07:41;;;;;;;14.27;11.23;;;;;;;23.08;70.94;99804.84;126642;1088;114641;-83
2021/07/18 03:10:29;;;;;;;14.43;11.10;;;;;;;23.06;70.64;99807.64;126705;1089;103149;-83
2021/07/18 03:13:16;;;;;;;15.43;11.47;;;;;;;23.02;70.55;99810.73;126724;1089;102977;-83
2021/07/18 03:16:05;;;;;;;15.07;11.67;;;;;;;23.00;70.81;99805.55;126609;1089;114132;-83
2021/07/18 03:18:52;;;;;;;13.87;11.07;;;;;;;22.99;71.03;99811.02;126807;1089;102926;-83
2021/07/18 03:21:40;;;;;;;16.60;11.37;;;;;;;22.99;70.98;99811.02;126689;1090;114441;-83
2021/07/18 03:24:28;;;;;;;15.07;11.47;;;;;;;22.98;70.95;99814.63;126781;1090;102874;-83
2021/07/18 03:27:16;;;;;;;16.40;12.73;;;;;;;22.97;71.33;99812.95;126647;1089;113206;-83
2021/07/18 03:30:07;;;;;;;15.40;12.50;;;;;;;22.96;71.62;99819.25;126813;1090;103032;-83
2021/07/18 03:32:54;;;;;;;16.90;12.60;;;;;;;22.95;71.72;99814.91;126659;1090;114307;-83
2021/07/18 03:35:42;;;;;;;14.37;12.03;;;;;;;22.95;71.87;99821.06;126720;1089;102977;-83
2021/07/18 03:38:30;;;;;;;19.83;12.87;;;;;;;23.00;71.67;99831.31;126677;1090;114529;-83
2021/07/18 03:41:19;;;;;;;;;;;;;;;22.96;71.73;99819.25;126907;1089;102904;-83
2021/07/18 03:44:07;;;;;;;18.13;13.83;;;;;;;22.94;71.95;99826.52;126542;1090;104112;-83
2021/07/18 03:46:54;;;;;;;18.53;13.40;;;;;;;23.00;72.32;99825.99;126729;1088;102898;-83
2021/07/18 03:49:42;;;;;;;18.07;13.10;;;;;;;23.05;72.38;99829.91;126643;1089;114657;-83
2021/07/18 03:52:30;;;;;;;17.03;12.93;;;;;;;23.10;72.18;99834.80;126708;1090;102888;-82
2021/07/18 03:55:18;;;;;;;20.57;13.93;;;;;;;23.18;72.06;99840.28;126713;1089;103060;-83
2021/07/18 03:58:05;;;;;;;21.57;15.90;;;;;;;23.25;72.34;99837.89;126616;1089;114265;-83
2021/07/18 04:00:53;;;;;;;17.63;14.10;;;;;;;23.25;72.09;99827.25;126759;1089;102882;-83
2021/07/18 04:03:46;;;;;;;17.60;13.73;;;;;;;23.19;72.02;99834.81;126657;1090;114319;-83
2021/07/18 04:06:33;;;;;;;16.67;13.30;;;;;;;23.23;72.71;99830.05;126906;1088;103128;-82
2021/07/18 04:09:21;;;;;;;21.67;13.83;;;;;;;23.25;72.44;99836.07;126648;1089;114819;-82
2021/07/18 04:12:09;;;;;;;20.03;14.20;;;;;;;23.22;71.71;99831.03;126745;1089;101642;-82
2021/07/18 04:14:57;;;;;;;14.73;12.60;;;;;;;23.19;72.24;99834.81;126743;1089;114258;-82
2021/07/18 04:17:44;;;;;;;16.80;12.83;;;;;;;23.15;72.33;99827.23;126679;1090;102997;-83
2021/07/18 04:20:32;;;;;;;19.07;13.37;;;;;;;23.12;72.19;99828.36;126669;1090;114763;-83
2021/07/18 04:23:20;;;;;;;19.10;13.67;;;;;;;23.20;72.44;99827.68;126710;1090;103700;-83
2021/07/18 04:26:08;;;;;;;18.23;13.03;;;;;;;23.28;72.30;99833.13;126545;1088;114459;-83
2021/07/18 04:28:56;;;;;;;17.30;13.07;;;;;;;23.42;72.23;99835.36;126671;1089;102979;-82
2021/07/18 04:31:44;;;;;;;18.10;13.63;;;;;;;23.55;71.80;99828.92;126801;1089;102921;-83
2021/07/18 04:34:32;;;;;;;20.25;13.95;;;;;;;23.56;71.95;99830.59;126727;1088;102903;-83
2021/07/18 04:37:20;;;;;;;17.07;12.97;;;;;;;23.60;71.53;99829.36;126737;1090;103373;-83
2021/07/18 04:40:11;;;;;;;18.20;12.30;;;;;;;23.67;71.87;99827.79;126747;1088;113545;-83
2021/07/18 04:42:58;;;;;;;15.83;12.70;;;;;;;23.71;71.49;99837.19;126697;1090;102985;-81
2021/07/18 04:45:46;;;;;;;16.90;12.93;;;;;;;23.71;71.11;99839.86;126615;1089;114467;-83
2021/07/18 04:48:33;;;;;;;15.57;12.00;;;;;;;23.76;71.40;99833.11;126708;1089;102978;-83
2021/07/18 04:51:21;;;;;;;15.23;11.53;;;;;;;23.78;71.17;99835.63;126606;1089;113602;-83
2021/07/18 04:54:08;;;;;;;16.23;10.93;;;;;;;23.80;71.52;99834.49;126731;1089;103003;-83
2021/07/18 04:56:56;;;;;;;15.63;11.93;;;;;;;23.83;70.94;99844.02;126632;1089;114485;-83
2021/07/18 04:59:44;;;;;;;14.77;11.70;;;;;;;23.89;70.98;99838.13;126694;1090;102908;-83
2021/07/18 05:02:31;;;;;;;14.30;11.70;;;;;;;23.93;70.96;99838.67;126563;1089;114262;-83
2021/07/18 05:05:19;;;;;;;14.40;12.30;;;;;;;23.95;70.63;99839.38;126703;1089;103042;-83
2021/07/18 05:08:08;;;;;;;13.90;11.63;;;;;;;23.96;70.50;99839.22;126613;1090;113392;-83
2021/07/18 05:10:56;;;;;;;15.83;10.73;;;;;;;24.01;70.70;99836.95;126813;1090;103039;-83
2021/07/18 05:13:43;;;;;;;14.87;11.67;;;;;;;24.03;70.55;99834.98;126702;1089;102916;-83
2021/07/18 05:16:31;;;;;;;13.87;11.03;;;;;;;24.07;70.51;99839.06;126829;1089;100451;-83
2021/07/18 05:19:19;;;;;;;13.90;11.10;;;;;;;24.17;70.46;99847.00;126840;1090;102975;-83
2021/07/18 05:22:08;;;;;;;13.70;11.40;;;;;;;24.20;69.75;99840.53;126665;1089;114457;-83
2021/07/18 05:24:56;;;;;;;14.77;11.27;;;;;;;24.19;70.36;99844.19;126691;1090;102988;-83
2021/07/18 05:27:44;;;;;;;14.37;11.23;;;;;;;24.18;70.07;99847.84;126643;1089;114392;-83
2021/07/18 05:30:32;;;;;;;13.00;10.37;;;;;;;24.20;69.98;99845.86;126795;1089;103021;-83
2021/07/18 05:33:20;;;;;;;11.60;10.40;;;;;;;24.20;69.85;99851.20;126614;1089;114477;-83
2021/07/18 05:36:11;;;;;;;13.03;10.93;;;;;;;24.21;69.89;99844.88;126702;1089;102919;-83
2021/07/18 05:38:59;;;;;;;12.93;10.60;;;;;;;24.23;70.34;99842.91;126638;1089;114429;-83
2021/07/18 05:41:46;;;;;;;14.35;10.60;;;;;;;24.28;70.18;99846.83;126748;1090;102916;-83
2021/07/18 05:44:34;;;;;;;11.70;9.70;;;;;;;24.37;70.19;99842.45;126607;1090;114630;-83
2021/07/18 05:47:22;;;;;;;12.97;10.60;;;;;;;24.51;69.60;99838.47;126766;1090;102897;-82
2021/07/18 05:50:11;;;;;;;11.60;10.23;;;;;;;24.64;69.61;99845.14;126628;1088;102898;-82
2021/07/18 05:52:59;;;;;;;10.90;9.73;;;;;;;24.75;69.29;99851.23;126736;1088;103684;-82
2021/07/18 05:55:46;;;;;;;12.43;9.80;;;;;;;24.79;69.14;99847.31;126760;1089;103049;-82
2021/07/18 05:58:34;;;;;;;11.50;9.70;;;;;;;24.78;68.38;99853.63;126660;1088;114295;-83
2021/07/18 06:01:22;;;;;;;12.07;9.67;;;;;;;24.76;68.34;99852.91;126791;1089;102969;-83
2021/07/18 06:04:10;;;;;;;12.57;9.30;;;;;;;24.76;68.34;99850.25;126605;1090;114340;-83
2021/07/18 06:06:58;;;;;;;14.73;11.77;;;;;;;24.70;68.62;99849.87;126734;1090;102914;-83
2021/07/18 06:09:45;;;;;;;12.23;9.07;;;;;;;24.72;68.21;99847.05;126662;1090;113474;-83
2021/07/18 06:12:33;;;;;;;11.60;9.17;;;;;;;25.07;68.19;99840.11;126759;1090;102901;-83
2021/07/18 06:15:21;;;;;;;13.77;9.33;;;;;;;25.75;66.76;99835.05;126740;1089;114274;-83
2021/07/18 06:18:09;;;;;;;10.17;8.70;;;;;;;25.96;65.94;99837.34;126662;1089;102914;-83
2021/07/18 06:20:56;;;;;;;10.63;8.33;;;;;;;25.94;65.59;99836.67;126654;1088;114288;-83
2021/07/18 06:23:45;;;;;;;9.17;8.27;;;;;;;25.95;64.97;99841.85;126753;1090;102895;-83
2021/07/18 06:26:33;;;;;;;9.73;8.43;;;;;;;25.93;64.78;99837.67;126895;1089;103026;-82
2021/07/18 06:29:21;;;;;;;10.77;8.73;;;;;;;25.81;64.71;99840.59;126717;1090;102943;-82
2021/07/18 06:32:08;;;;;;;9.90;8.70;;;;;;;25.71;64.57;99834.53;126725;1089;103863;-82
2021/07/18 06:34:56;;;;;;;9.53;8.37;;;;;;;25.64;64.78;99836.09;126669;1088;113974;-82
2021/07/18 06:37:44;;;;;;;10.53;8.17;;;;;;;25.60;65.24;99843.58;126741;1090;102876;-83
2021/07/18 06:40:32;;;;;;;9.77;8.33;;;;;;;25.61;65.23;99841.75;126782;1088;114211;-83
2021/07/18 06:43:20;;;;;;;10.20;8.60;;;;;;;25.62;64.94;99846.09;126727;1088;103055;-83
2021/07/18 06:46:07;;;;;;;12.87;9.97;;;;;;;25.59;64.69;99846.41;126603;1089;114181;-83
2021/07/18 06:48:55;;;;;;;13.57;10.17;;;;;;;25.44;64.65;99842.61;126746;1090;102878;-83
2021/07/18 06:51:43;;;;;;;12.57;10.53;;;;;;;25.36;65.24;99845.23;126569;1090;114608;-83
2021/07/18 06:54:31;;;;;;;12.30;9.73;;;;;;;25.25;65.46;99849.80;126724;1088;102905;-83
2021/07/18 06:57:19;;;;;;;11.97;9.53;;;;;;;25.19;65.58;99845.08;126612;1089;114303;-83
2021/07/18 07:00:08;;;;;;;11.20;9.33;;;;;;;25.21;65.37;99845.77;126751;1089;102937;-83
2021/07/18 07:02:55;;;;;;;12.23;10.37;;;;;;;25.27;65.21;99853.14;126844;1089;102909;-83
2021/07/18 07:05:43;;;;;;;13.25;10.90;;;;;;;25.27;65.16;99853.14;126659;1090;114198;-83
2021/07/18 07:08:31;;;;;;;12.63;10.13;;;;;;;25.22;65.14;99858.11;126766;1090;103016;-83
2021/07/18 07:11:19;;;;;;;12.90;10.33;;;;;;;25.15;65.27;99859.73;126528;1088;114352;-83
2021/07/18 07:14:08;;;;;;;10.50;8.73;;;;;;;25.08;64.91;99857.80;126631;1089;102999;-83
2021/07/18 07:16:57;;;;;;;10.25;8.95;;;;;;;25.03;65.26;99852.92;126568;1090;114187;-83
2021/07/18 07:19:45;;;;;;;11.50;8.63;;;;;;;25.08;65.51;99861.30;126716;1089;103005;-83
2021/07/18 07:22:35;;;;;;;14.50;10.40;;;;;;;25.16;65.91;99866.73;126589;1089;114862;-83
2021/07/18 07:25:24;;;;;;;12.53;8.97;;;;;;;25.24;65.29;99873.97;126706;1089;101138;-83
2021/07/18 07:28:12;;;;;;;11.40;8.70;;;;;;;25.20;65.13;99859.27;126579;1090;114315;-83
2021/07/18 07:31:01;;;;;;;10.13;9.10;;;;;;;25.21;65.00;99863.61;126709;1089;102849;-83
2021/07/18 07:33:49;;;;;;;10.00;8.53;;;;;;;25.21;64.97;99869.78;126613;1090;114538;-83
2021/07/18 07:36:37;;;;;;;10.70;8.53;;;;;;;25.35;65.10;99875.59;126784;1090;102896;-83
2021/07/18 07:39:24;;;;;;;8.87;7.97;;;;;;;25.42;64.54;99872.14;126607;1089;113252;-83
2021/07/18 07:42:12;;;;;;;13.13;8.40;;;;;;;25.47;64.51;99864.50;126785;1089;103051;-83
2021/07/18 07:44:59;;;;;;;11.37;8.10;;;;;;;25.49;64.27;99872.35;126750;1089;102918;-83
2021/07/18 07:47:48;;;;;;;9.97;7.70;;;;;;;25.52;63.88;99867.56;126781;1090;114293;-83
2021/07/18 07:50:36;;;;;;;9.37;8.43;;;;;;;25.60;64.03;99875.63;126749;1088;102896;-83
2021/07/18 07:53:25;;;;;;;9.63;7.80;;;;;;;25.73;63.46;99872.60;126815;1089;114039;-83
2021/07/18 07:56:13;;;;;;;8.90;8.00;;;;;;;25.80;63.77;99870.97;126679;1090;103036;-83
2021/07/18 07:59:00;;;;;;;11.70;8.90;;;;;;;25.90;63.49;99874.39;126634;1088;173268;-83
2021/07/18 08:01:48;;;;;;;11.70;7.90;;;;;;;26.12;63.55;99864.17;126688;1090;102885;-83
2021/07/18 08:04:36;;;;;;;10.03;7.03;;;;;;;26.37;62.66;99867.83;126672;1088;114146;-83
2021/07/18 08:07:24;;;;;;;12.10;7.60;;;;;;;26.77;62.64;99864.51;126781;1090;102900;-84
2021/07/18 08:10:14;;;;;;;9.70;8.70;;;;;;;26.96;61.38;99879.45;126711;1088;114237;-83
2021/07/18 08:13:02;;;;;;;11.87;7.90;;;;;;;27.13;60.89;99877.67;126736;1090;104093;-83
2021/07/18 08:15:50;;;;;;;11.00;8.77;;;;;;;27.35;60.45;99875.19;126793;1090;113559;-83
2021/07/18 08:18:40;;;;;;;12.47;8.50;;;;;;;27.53;60.35;99877.70;126688;1088;102908;-83
2021/07/18 08:21:27;;;;;;;10.43;8.10;;;;;;;27.61;59.81;99877.70;126672;1089;113420;-83
2021/07/18 08:24:28;;;;;;;12.33;8.27;;;;;;;27.72;59.08;99881.09;126662;1088;103066;-84
2021/07/18 08:27:16;;;;;;;10.20;8.20;;;;;;;27.71;58.38;99879.41;126787;1089;102882;-83
2021/07/18 08:30:06;;;;;;;8.57;7.70;;;;;;;27.73;58.42;99872.04;126656;1090;115155;-83
2021/07/18 08:32:54;;;;;;;9.10;7.80;;;;;;;28.40;57.62;99870.77;126666;1088;103057;-83
2021/07/18 08:35:41;;;;;;;8.50;7.57;;;;;;;28.87;57.20;99869.89;126582;1089;114283;-83
2021/07/18 08:38:30;;;;;;;9.43;7.00;;;;;;;29.46;56.24;99876.43;126679;1090;103050;-83
2021/07/18 08:41:21;;;;;;;8.67;7.03;;;;;;;29.66;55.35;99867.87;126577;1089;115091;-83
2021/07/18 08:44:12;;;;;;;10.60;7.87;;;;;;;29.68;54.62;99872.04;126739;1090;103010;-83
2021/07/18 08:47:01;;;;;;;10.57;8.50;;;;;;;29.73;54.11;99872.32;126551;1089;114208;-83
2021/07/18 08:49:49;;;;;;;9.90;8.40;;;;;;;29.73;53.54;99868.80;126788;1090;101439;-83
2021/07/18 08:52:37;;;;;;;10.47;7.57;;;;;;;29.77;53.83;99870.09;126642;1089;112890;-83
2021/07/18 08:55:26;;;;;;;8.00;7.20;;;;;;;29.78;54.08;99871.77;126646;1089;102976;-83
2021/07/18 08:58:15;;;;;;;7.37;6.53;;;;;;;29.83;53.08;99873.94;126583;1090;114263;-83
2021/07/18 09:01:03;;;;;;;9.03;6.70;;;;;;;30.10;53.26;99867.13;126759;1089;102925;-83
2021/07/18 09:03:55;;;;;;;8.43;6.43;;;;;;;30.51;52.79;99872.86;126629;1090;114226;-83
2021/07/18 09:06:48;;;;;;;6.73;5.93;;;;;;;31.02;51.69;99868.34;126862;1088;102931;-83
2021/07/18 09:09:36;;;;;;;7.60;6.00;;;;;;;31.54;51.02;99864.53;126881;1089;102935;-83
2021/07/18 09:12:24;;;;;;;7.57;6.07;;;;;;;31.48;50.02;99863.45;126769;1090;112873;-83
2021/07/18 09:15:12;;;;;;;8.47;6.40;;;;;;;31.24;49.71;99867.39;126682;1088;102903;-83
2021/07/18 09:18:11;;;;;;;7.40;6.30;;;;;;;31.53;50.02;99865.56;126646;1088;114307;-83
2021/07/18 09:21:00;;;;;;;9.47;6.10;;;;;;;32.37;49.13;99868.30;126757;1089;102911;-83
2021/07/18 09:23:47;;;;;;;7.80;5.97;;;;;;;33.25;48.47;99866.56;126584;1089;113921;-83
2021/07/18 09:26:35;;;;;;;5.93;5.20;;;;;;;33.95;46.33;99865.19;126905;1088;103492;-83
2021/07/18 09:29:26;;;;;;;8.60;5.43;;;;;;;34.42;45.63;99865.92;126684;1089;114071;-83
2021/07/18 09:32:17;;;;;;;6.27;5.10;;;;;;;34.42;44.37;99866.75;126659;1089;102881;-83
2021/07/18 09:35:10;;;;;;;8.33;5.63;;;;;;;34.19;44.35;99867.20;126762;1090;112847;-83
2021/07/18 09:37:58;;;;;;;7.93;5.50;;;;;;;33.76;44.43;99863.30;126915;1089;102971;-83
2021/07/18 09:40:56;;;;;;;6.90;5.50;;;;;;;33.42;44.65;99873.27;126699;1089;114111;-83
2021/07/18 09:43:44;;;;;;;7.37;5.37;;;;;;;33.62;45.27;99871.41;126734;1090;103026;-83
2021/07/18 09:46:32;;;;;;;7.30;5.33;;;;;;;33.86;44.92;99863.72;126664;1088;114403;-83
2021/07/18 09:49:35;;;;;;;5.57;4.93;;;;;;;33.76;44.26;99866.00;126727;1090;102893;-83
2021/07/18 09:52:26;;;;;;;9.33;5.63;;;;;;;33.62;44.55;99862.46;126751;1089;113057;-83
2021/07/18 09:55:22;;;;;;;5.73;4.40;;;;;;;33.38;44.65;99863.89;126754;1089;103006;-83
2021/07/18 09:58:20;;;;;;;7.23;5.10;;;;;;;33.75;44.18;99853.49;126664;1089;114116;-84
2021/07/18 10:01:16;;;;;;;5.60;5.00;;;;;;;33.94;42.69;99866.23;126780;1090;102967;-84
2021/07/18 10:04:04;;;;;;;8.35;5.23;;;;;;;33.51;42.69;99863.07;126696;1088;114220;-84
2021/07/18 10:07:07;;;;;;;7.20;5.13;;;;;;;33.13;43.03;99860.92;126719;1090;103002;-84
2021/07/18 10:09:55;;;;;;;5.50;4.90;;;;;;;33.00;43.63;99861.71;126714;1089;102866;-83
2021/07/18 10:12:43;;;;;;;5.73;4.43;;;;;;;32.91;44.26;99854.02;126661;1089;113955;-83
2021/07/18 10:15:32;;;;;;;5.90;4.57;;;;;;;33.21;44.59;99852.60;126863;1088;102982;-83
2021/07/18 10:18:20;;;;;;;5.77;4.70;;;;;;;33.96;44.26;99855.19;126583;1088;114113;-83
2021/07/18 10:21:10;;;;;;;8.20;5.00;;;;;;;33.99;43.42;99854.77;126746;1089;102994;-83
2021/07/18 10:23:58;;;;;;;5.77;4.73;;;;;;;33.94;42.38;99852.70;126678;1089;113959;-83
2021/07/18 10:26:49;;;;;;;7.03;5.50;;;;;;;33.56;42.37;99857.87;126719;1088;100448;-83
2021/07/18 10:29:39;;;;;;;8.27;5.10;;;;;;;33.16;41.99;99855.09;126626;1088;114057;-83
2021/07/18 10:32:27;;;;;;;6.37;5.30;;;;;;;33.19;42.77;99848.45;126733;1089;102889;-83
2021/07/18 10:35:15;;;;;;;5.53;5.03;;;;;;;33.56;42.28;99850.59;126590;1089;114262;-83
2021/07/18 10:38:22;;;;;;;6.50;5.13;;;;;;;34.08;42.14;99848.91;126756;1089;102881;-83
2021/07/18 10:41:15;;;;;;;11.07;5.40;;;;;;;34.70;40.72;99847.48;126679;1088;113922;-83
2021/07/18 10:44:19;;;;;;;5.67;5.00;;;;;;;35.09;40.57;99845.63;126680;1090;102895;-83
2021/07/18 10:47:07;;;;;;;5.70;4.50;;;;;;;35.00;39.41;99849.63;126577;1088;114233;-83
2021/07/18 10:49:59;;;;;;;7.53;4.67;;;;;;;34.74;39.74;99847.88;126729;1089;103061;-83
2021/07/18 10:52:46;;;;;;;7.40;4.70;;;;;;;34.38;40.51;99853.86;126669;1090;114261;-82
2021/07/18 10:55:37;;;;;;;5.50;4.77;;;;;;;33.91;40.10;99847.69;126945;1089;102901;-82
2021/07/18 10:58:40;;;;;;;5.50;5.00;;;;;;;33.34;40.47;99847.25;126630;1090;114464;-82
2021/07/18 11:01:31;;;;;;;6.97;5.30;;;;;;;32.84;41.47;99845.88;126831;1089;102895;-82
2021/07/18 11:04:40;;;;;;;5.40;4.90;;;;;;;32.53;41.90;99848.23;126692;1088;102894;-82
2021/07/18 11:07:37;;;;;;;6.50;4.93;;;;;;;32.33;42.14;99843.58;126734;1090;102975;-82
2021/07/18 11:10:24;;;;;;;6.77;5.53;;;;;;;32.17;42.92;99854.67;126766;1090;103043;-82
2021/07/18 11:13:12;;;;;;;6.30;5.70;;;;;;;31.91;42.82;99851.78;126625;1089;113966;-82
2021/07/18 11:16:00;;;;;;;7.40;5.90;;;;;;;31.73;43.04;99847.72;126695;1090;102936;-82
2021/07/18 11:18:48;;;;;;;6.07;5.47;;;;;;;31.73;42.79;99850.41;126712;1089;114498;-83
2021/07/18 11:21:47;;;;;;;7.07;5.60;;;;;;;31.99;43.23;99843.55;126817;1088;102883;-82
2021/07/18 11:25:08;;;;;;;8.00;5.77;;;;;;;32.38;42.95;99833.02;126699;1088;114224;-82
2021/07/18 11:27:55;;;;;;;7.07;5.00;;;;;;;32.72;42.26;99828.58;126598;1092;102936;-84
2021/07/18 11:30:43;;;;;;;6.97;5.07;;;;;;;33.01;42.12;99825.55;126283;1093;114074;-82
2021/07/18 11:33:30;;;;;;;8.93;5.00;;;;;;;33.24;41.58;99829.77;126660;1092;102932;-83
2021/07/18 11:36:24;;;;;;;6.80;5.60;;;;;;;33.26;40.83;99831.22;126412;1092;114308;-83
2021/07/18 11:39:19;;;;;;;5.13;4.70;;;;;;;33.03;40.45;99828.05;126413;1093;101116;-83
2021/07/18 11:42:10;;;;;;;4.67;4.27;;;;;;;32.91;40.24;99829.70;126465;1091;114058;-82
2021/07/18 11:44:58;;;;;;;5.37;3.83;;;;;;;33.07;40.02;99829.33;126300;1092;102961;-83
2021/07/18 11:47:46;;;;;;;5.33;4.13;;;;;;;33.25;39.97;99826.86;126258;1092;114013;-84
2021/07/18 11:50:34;;;;;;;5.93;4.90;;;;;;;33.33;39.05;99832.08;126604;1093;103182;-82
2021/07/18 11:53:22;;;;;;;5.53;4.47;;;;;;;33.43;39.19;99820.87;126270;1093;113838;-82
2021/07/18 11:56:23;;;;;;;5.77;4.40;;;;;;;33.45;38.65;99816.08;126356;1093;103115;-83
2021/07/18 11:59:13;;;;;;;5.10;4.17;;;;;;;33.46;38.71;99806.93;126170;1092;114266;-84
2021/07/18 12:02:01;;;;;;;4.87;4.40;;;;;;;33.57;38.71;99811.69;126408;1092;102681;-83
2021/07/18 12:04:50;;;;;;;4.60;4.10;;;;;;;33.50;38.28;99816.28;126581;1088;114275;-83
2021/07/18 12:07:37;;;;;;;6.60;4.40;;;;;;;33.44;38.19;99802.77;126717;1088;102915;-82
2021/07/18 12:10:25;;;;;;;5.07;4.57;;;;;;;33.37;38.26;99805.45;126738;1089;102887;-83
2021/07/18 12:13:13;;;;;;;6.43;4.50;;;;;;;33.26;38.58;99808.77;126783;1090;113909;-82
2021/07/18 12:16:03;;;;;;;7.30;4.50;;;;;;;33.16;38.53;99811.86;126738;1089;102934;-84
2021/07/18 12:18:53;;;;;;;5.17;4.60;;;;;;;33.22;38.39;99804.83;126556;1088;114096;-84
2021/07/18 12:21:46;;;;;;;5.93;4.60;;;;;;;33.14;38.00;99807.70;126671;1089;103360;-83
2021/07/18 12:24:40;;;;;;;5.03;4.53;;;;;;;33.03;37.96;99795.63;126581;1090;114142;-83
2021/07/18 12:27:28;;;;;;;5.30;4.75;;;;;;;32.92;37.98;99797.08;126737;1089;102913;-83
2021/07/18 12:30:23;;;;;;;4.97;4.50;;;;;;;32.86;38.05;99792.51;126649;1089;113564;-83
2021/07/18 12:33:14;;;;;;;5.10;4.30;;;;;;;32.73;38.52;99789.73;126660;1090;103154;-82
2021/07/18 12:36:05;;;;;;;5.93;5.00;;;;;;;32.60;38.71;99790.52;126579;1089;112871;-82
2021/07/18 12:38:53;;;;;;;4.85;4.40;;;;;;;32.53;38.88;99788.85;126941;1090;102978;-83
2021/07/18 12:41:41;;;;;;;5.60;4.60;;;;;;;32.51;38.94;99785.52;126582;1089;113954;-81
2021/07/18 12:44:36;;;;;;;5.30;4.73;;;;;;;32.46;38.54;99797.73;126801;1088;102876;-83
2021/07/18 12:47:36;;;;;;;5.77;4.70;;;;;;;32.38;38.31;99797.92;126615;1090;113153;-80
2021/07/18 12:50:35;;;;;;;6.57;4.50;;;;;;;32.31;38.99;99799.74;126700;1090;103062;-79